Terminal Aerodrome Forecast
Issued by NWS

Home | Current Version | Previous Version | Text Only | Print | Product List | Glossary On
Versions: 1 2 3 4 5 6 7 8 9 10 11 12 13 14 15 16 17 18 19 20 21
305
FTUS43 KPAH 112339
TAFCGI
TAF
KCGI 112339Z 1200/1224 06005KT P6SM BKN250
     FM120500 08003KT P6SM SCT045 OVC090
     FM121400 33004KT P6SM SCT015 OVC045
     FM121800 34006KT P6SM BKN015 OVC025=

USA.gov is the U.S. government's official web portal to all federal, state and local government web resources and services.